sensor_id;sensor_type;location;lat;lon;timestamp;P1;durP1;ratioP1;P2;durP2;ratioP2
43114;SDS011;28727;50.068;14.452;2023-06-04T00:02:10;6.20;;;2.10;;
43114;SDS011;28727;50.068;14.452;2023-06-04T00:04:42;6.22;;;2.20;;
43114;SDS011;28727;50.068;14.452;2023-06-04T00:07:14;2.85;;;1.75;;
43114;SDS011;28727;50.068;14.452;2023-06-04T00:09:46;5.35;;;2.00;;
43114;SDS011;28727;50.068;14.452;2023-06-04T00:12:18;4.22;;;1.83;;
43114;SDS011;28727;50.068;14.452;2023-06-04T00:14:50;3.42;;;1.75;;
43114;SDS011;28727;50.068;14.452;2023-06-04T00:17:22;3.15;;;1.83;;
43114;SDS011;28727;50.068;14.452;2023-06-04T00:19:54;3.70;;;1.77;;
43114;SDS011;28727;50.068;14.452;2023-06-04T00:22:26;3.10;;;1.85;;
43114;SDS011;28727;50.068;14.452;2023-06-04T00:24:58;4.53;;;2.00;;
43114;SDS011;28727;50.068;14.452;2023-06-04T00:27:29;4.05;;;1.50;;
43114;SDS011;28727;50.068;14.452;2023-06-04T00:30:02;3.38;;;1.80;;
43114;SDS011;28727;50.068;14.452;2023-06-04T00:32:34;4.18;;;2.05;;
43114;SDS011;28727;50.068;14.452;2023-06-04T00:35:08;5.45;;;2.40;;
43114;SDS011;28727;50.068;14.452;2023-06-04T00:37:40;6.00;;;1.80;;
43114;SDS011;28727;50.068;14.452;2023-06-04T00:40:16;4.03;;;1.65;;
43114;SDS011;28727;50.068;14.452;2023-06-04T00:42:48;3.25;;;1.60;;
43114;SDS011;28727;50.068;14.452;2023-06-04T00:45:20;3.25;;;1.90;;
43114;SDS011;28727;50.068;14.452;2023-06-04T00:47:54;4.72;;;2.00;;
43114;SDS011;28727;50.068;14.452;2023-06-04T00:50:27;4.18;;;1.80;;
43114;SDS011;28727;50.068;14.452;2023-06-04T00:52:59;4.03;;;2.50;;
43114;SDS011;28727;50.068;14.452;2023-06-04T00:55:31;4.65;;;1.92;;
43114;SDS011;28727;50.068;14.452;2023-06-04T00:58:03;4.53;;;1.92;;
43114;SDS011;28727;50.068;14.452;2023-06-04T01:00:35;3.33;;;2.00;;
43114;SDS011;28727;50.068;14.452;2023-06-04T01:03:12;6.35;;;2.30;;
43114;SDS011;28727;50.068;14.452;2023-06-04T01:06:07;7.20;;;1.98;;
43114;SDS011;28727;50.068;14.452;2023-06-04T01:08:52;4.07;;;1.80;;
43114;SDS011;28727;50.068;14.452;2023-06-04T01:11:32;4.87;;;1.93;;
43114;SDS011;28727;50.068;14.452;2023-06-04T01:14:09;4.15;;;1.70;;
43114;SDS011;28727;50.068;14.452;2023-06-04T01:27:51;5.47;;;1.90;;
43114;SDS011;28727;50.068;14.452;2023-06-04T01:30:28;3.97;;;2.05;;
43114;SDS011;28727;50.068;14.452;2023-06-04T01:33:03;6.93;;;2.20;;
43114;SDS011;28727;50.068;14.452;2023-06-04T01:35:35;3.63;;;2.00;;
43114;SDS011;28727;50.068;14.452;2023-06-04T01:38:07;3.75;;;1.80;;
43114;SDS011;28727;50.068;14.452;2023-06-04T01:40:40;4.80;;;1.80;;
43114;SDS011;28727;50.068;14.452;2023-06-04T01:43:12;4.88;;;2.00;;
43114;SDS011;28727;50.068;14.452;2023-06-04T01:45:44;3.70;;;1.65;;
43114;SDS011;28727;50.068;14.452;2023-06-04T01:48:16;3.55;;;1.80;;
43114;SDS011;28727;50.068;14.452;2023-06-04T01:50:49;4.22;;;2.03;;
43114;SDS011;28727;50.068;14.452;2023-06-04T01:53:20;4.53;;;2.22;;
43114;SDS011;28727;50.068;14.452;2023-06-04T01:55:53;5.45;;;1.90;;
43114;SDS011;28727;50.068;14.452;2023-06-04T01:58:26;5.47;;;1.90;;
43114;SDS011;28727;50.068;14.452;2023-06-04T02:03:34;4.07;;;1.92;;
43114;SDS011;28727;50.068;14.452;2023-06-04T02:06:08;3.55;;;1.70;;
43114;SDS011;28727;50.068;14.452;2023-06-04T02:08:40;5.30;;;1.95;;
43114;SDS011;28727;50.068;14.452;2023-06-04T02:11:13;5.03;;;2.40;;
43114;SDS011;28727;50.068;14.452;2023-06-04T02:13:45;6.60;;;2.25;;
43114;SDS011;28727;50.068;14.452;2023-06-04T02:16:19;4.03;;;2.10;;
43114;SDS011;28727;50.068;14.452;2023-06-04T02:18:52;4.45;;;1.60;;
43114;SDS011;28727;50.068;14.452;2023-06-04T02:21:25;3.95;;;1.80;;
43114;SDS011;28727;50.068;14.452;2023-06-04T02:23:56;4.65;;;2.00;;
43114;SDS011;28727;50.068;14.452;2023-06-04T02:26:28;3.28;;;1.70;;
43114;SDS011;28727;50.068;14.452;2023-06-04T02:29:01;3.83;;;1.75;;
43114;SDS011;28727;50.068;14.452;2023-06-04T02:31:33;3.65;;;1.70;;
43114;SDS011;28727;50.068;14.452;2023-06-04T02:34:05;3.47;;;2.20;;
43114;SDS011;28727;50.068;14.452;2023-06-04T02:36:38;3.25;;;1.80;;
43114;SDS011;28727;50.068;14.452;2023-06-04T02:39:10;8.48;;;2.25;;
43114;SDS011;28727;50.068;14.452;2023-06-04T02:41:45;4.75;;;2.00;;
43114;SDS011;28727;50.068;14.452;2023-06-04T02:44:18;6.55;;;2.50;;
43114;SDS011;28727;50.068;14.452;2023-06-04T02:46:50;4.18;;;1.70;;
43114;SDS011;28727;50.068;14.452;2023-06-04T02:49:22;3.50;;;1.88;;
43114;SDS011;28727;50.068;14.452;2023-06-04T02:51:54;7.68;;;2.40;;
43114;SDS011;28727;50.068;14.452;2023-06-04T02:54:26;6.60;;;2.40;;
43114;SDS011;28727;50.068;14.452;2023-06-04T02:56:58;6.28;;;2.00;;
43114;SDS011;28727;50.068;14.452;2023-06-04T02:59:30;5.07;;;2.22;;
43114;SDS011;28727;50.068;14.452;2023-06-04T03:02:02;4.90;;;2.00;;
43114;SDS011;28727;50.068;14.452;2023-06-04T03:04:35;4.60;;;1.92;;
43114;SDS011;28727;50.068;14.452;2023-06-04T03:07:07;4.20;;;2.25;;
43114;SDS011;28727;50.068;14.452;2023-06-04T03:09:49;4.47;;;2.05;;
43114;SDS011;28727;50.068;14.452;2023-06-04T03:12:21;6.13;;;2.15;;
43114;SDS011;28727;50.068;14.452;2023-06-04T03:14:53;5.47;;;2.35;;
43114;SDS011;28727;50.068;14.452;2023-06-04T03:17:25;5.93;;;2.20;;
43114;SDS011;28727;50.068;14.452;2023-06-04T03:19:57;24.20;;;3.22;;
43114;SDS011;28727;50.068;14.452;2023-06-04T03:22:29;4.32;;;2.17;;
43114;SDS011;28727;50.068;14.452;2023-06-04T03:25:02;4.38;;;2.33;;
43114;SDS011;28727;50.068;14.452;2023-06-04T03:27:35;4.93;;;2.03;;
43114;SDS011;28727;50.068;14.452;2023-06-04T03:30:09;4.68;;;1.98;;
43114;SDS011;28727;50.068;14.452;2023-06-04T03:33:01;4.85;;;2.70;;
43114;SDS011;28727;50.068;14.452;2023-06-04T03:35:33;4.78;;;2.15;;
43114;SDS011;28727;50.068;14.452;2023-06-04T03:38:05;4.50;;;2.47;;
43114;SDS011;28727;50.068;14.452;2023-06-04T03:40:37;4.85;;;2.33;;
43114;SDS011;28727;50.068;14.452;2023-06-04T03:43:11;5.63;;;2.60;;
43114;SDS011;28727;50.068;14.452;2023-06-04T03:45:43;5.50;;;2.50;;
43114;SDS011;28727;50.068;14.452;2023-06-04T03:48:15;4.32;;;2.10;;
43114;SDS011;28727;50.068;14.452;2023-06-04T03:50:48;4.57;;;2.00;;
43114;SDS011;28727;50.068;14.452;2023-06-04T03:53:21;3.80;;;1.80;;
43114;SDS011;28727;50.068;14.452;2023-06-04T03:55:54;6.68;;;2.20;;
43114;SDS011;28727;50.068;14.452;2023-06-04T03:58:35;4.97;;;2.42;;
43114;SDS011;28727;50.068;14.452;2023-06-04T04:01:08;7.03;;;2.42;;
43114;SDS011;28727;50.068;14.452;2023-06-04T04:03:41;5.70;;;2.70;;
43114;SDS011;28727;50.068;14.452;2023-06-04T04:06:15;5.80;;;2.55;;
43114;SDS011;28727;50.068;14.452;2023-06-04T04:08:47;6.30;;;2.78;;
43114;SDS011;28727;50.068;14.452;2023-06-04T04:11:23;5.03;;;2.50;;
43114;SDS011;28727;50.068;14.452;2023-06-04T04:13:55;5.88;;;2.72;;
43114;SDS011;28727;50.068;14.452;2023-06-04T04:16:28;4.07;;;2.60;;
43114;SDS011;28727;50.068;14.452;2023-06-04T04:19:03;6.18;;;3.00;;
43114;SDS011;28727;50.068;14.452;2023-06-04T04:21:37;6.28;;;3.00;;
43114;SDS011;28727;50.068;14.452;2023-06-04T04:24:10;6.20;;;3.00;;
43114;SDS011;28727;50.068;14.452;2023-06-04T04:26:45;4.97;;;3.22;;
43114;SDS011;28727;50.068;14.452;2023-06-04T04:29:17;6.88;;;2.78;;
43114;SDS011;28727;50.068;14.452;2023-06-04T04:31:56;5.50;;;3.10;;
43114;SDS011;28727;50.068;14.452;2023-06-04T04:34:29;6.07;;;3.15;;
43114;SDS011;28727;50.068;14.452;2023-06-04T04:37:04;6.72;;;2.92;;
43114;SDS011;28727;50.068;14.452;2023-06-04T04:39:36;6.47;;;2.55;;
43114;SDS011;28727;50.068;14.452;2023-06-04T04:42:08;5.40;;;2.58;;
43114;SDS011;28727;50.068;14.452;2023-06-04T04:44:40;5.78;;;2.22;;
43114;SDS011;28727;50.068;14.452;2023-06-04T04:47:12;5.18;;;3.05;;
43114;SDS011;28727;50.068;14.452;2023-06-04T04:49:43;6.82;;;2.58;;
43114;SDS011;28727;50.068;14.452;2023-06-04T04:52:18;5.07;;;2.28;;
43114;SDS011;28727;50.068;14.452;2023-06-04T04:54:50;4.20;;;2.10;;
43114;SDS011;28727;50.068;14.452;2023-06-04T04:57:28;4.50;;;2.50;;
43114;SDS011;28727;50.068;14.452;2023-06-04T05:00:01;5.57;;;2.17;;
43114;SDS011;28727;50.068;14.452;2023-06-04T05:02:37;4.22;;;2.00;;
43114;SDS011;28727;50.068;14.452;2023-06-04T05:05:11;4.20;;;2.00;;
43114;SDS011;28727;50.068;14.452;2023-06-04T05:07:46;5.85;;;2.30;;
43114;SDS011;28727;50.068;14.452;2023-06-04T05:10:18;6.40;;;1.92;;
43114;SDS011;28727;50.068;14.452;2023-06-04T05:12:51;6.90;;;2.42;;
43114;SDS011;28727;50.068;14.452;2023-06-04T05:15:30;4.05;;;2.10;;
43114;SDS011;28727;50.068;14.452;2023-06-04T05:18:03;4.07;;;2.03;;
43114;SDS011;28727;50.068;14.452;2023-06-04T05:20:39;5.75;;;2.17;;
43114;SDS011;28727;50.068;14.452;2023-06-04T05:23:13;4.07;;;2.60;;
43114;SDS011;28727;50.068;14.452;2023-06-04T05:25:47;7.43;;;2.08;;
43114;SDS011;28727;50.068;14.452;2023-06-04T05:28:21;4.07;;;2.13;;
43114;SDS011;28727;50.068;14.452;2023-06-04T05:30:56;4.50;;;1.98;;
43114;SDS011;28727;50.068;14.452;2023-06-04T05:33:33;4.95;;;2.20;;
43114;SDS011;28727;50.068;14.452;2023-06-04T05:36:09;3.55;;;1.75;;
43114;SDS011;28727;50.068;14.452;2023-06-04T05:38:49;6.80;;;2.40;;
43114;SDS011;28727;50.068;14.452;2023-06-04T05:41:32;7.07;;;2.22;;
43114;SDS011;28727;50.068;14.452;2023-06-04T05:44:05;3.55;;;2.10;;
43114;SDS011;28727;50.068;14.452;2023-06-04T05:46:37;4.35;;;1.60;;
43114;SDS011;28727;50.068;14.452;2023-06-04T05:49:09;5.97;;;2.38;;
43114;SDS011;28727;50.068;14.452;2023-06-04T05:51:41;5.28;;;2.03;;
43114;SDS011;28727;50.068;14.452;2023-06-04T05:54:13;5.45;;;2.33;;
43114;SDS011;28727;50.068;14.452;2023-06-04T05:56:47;3.73;;;2.20;;
43114;SDS011;28727;50.068;14.452;2023-06-04T05:59:19;7.40;;;2.90;;
43114;SDS011;28727;50.068;14.452;2023-06-04T06:01:51;4.95;;;2.33;;
43114;SDS011;28727;50.068;14.452;2023-06-04T06:04:23;7.60;;;2.30;;
43114;SDS011;28727;50.068;14.452;2023-06-04T06:06:55;8.32;;;2.13;;
43114;SDS011;28727;50.068;14.452;2023-06-04T06:09:27;4.47;;;2.08;;
43114;SDS011;28727;50.068;14.452;2023-06-04T06:11:59;4.72;;;2.28;;
43114;SDS011;28727;50.068;14.452;2023-06-04T06:14:31;3.58;;;2.30;;
43114;SDS011;28727;50.068;14.452;2023-06-04T06:17:04;5.13;;;2.10;;
43114;SDS011;28727;50.068;14.452;2023-06-04T06:19:36;6.50;;;2.17;;
43114;SDS011;28727;50.068;14.452;2023-06-04T06:22:09;3.55;;;2.08;;
43114;SDS011;28727;50.068;14.452;2023-06-04T06:24:41;6.43;;;2.60;;
43114;SDS011;28727;50.068;14.452;2023-06-04T06:27:13;7.50;;;2.70;;
43114;SDS011;28727;50.068;14.452;2023-06-04T06:29:47;5.87;;;2.30;;
43114;SDS011;28727;50.068;14.452;2023-06-04T06:32:18;5.22;;;2.53;;
43114;SDS011;28727;50.068;14.452;2023-06-04T06:34:50;4.13;;;1.65;;
43114;SDS011;28727;50.068;14.452;2023-06-04T06:37:22;5.13;;;1.98;;
43114;SDS011;28727;50.068;14.452;2023-06-04T06:39:54;3.92;;;1.88;;
43114;SDS011;28727;50.068;14.452;2023-06-04T06:42:32;6.80;;;2.25;;
43114;SDS011;28727;50.068;14.452;2023-06-04T06:45:04;3.15;;;1.92;;
43114;SDS011;28727;50.068;14.452;2023-06-04T06:47:36;3.95;;;1.80;;
43114;SDS011;28727;50.068;14.452;2023-06-04T06:50:08;3.70;;;1.80;;
43114;SDS011;28727;50.068;14.452;2023-06-04T06:52:42;4.05;;;1.83;;
43114;SDS011;28727;50.068;14.452;2023-06-04T06:55:13;6.90;;;2.28;;
43114;SDS011;28727;50.068;14.452;2023-06-04T06:57:45;8.15;;;2.38;;
43114;SDS011;28727;50.068;14.452;2023-06-04T07:00:17;4.85;;;2.20;;
43114;SDS011;28727;50.068;14.452;2023-06-04T07:02:50;2.90;;;1.83;;
43114;SDS011;28727;50.068;14.452;2023-06-04T07:05:22;4.65;;;2.25;;
43114;SDS011;28727;50.068;14.452;2023-06-04T07:07:54;3.30;;;1.77;;
43114;SDS011;28727;50.068;14.452;2023-06-04T07:10:25;5.50;;;1.90;;
43114;SDS011;28727;50.068;14.452;2023-06-04T07:12:58;14.43;;;2.40;;
43114;SDS011;28727;50.068;14.452;2023-06-04T07:15:30;13.35;;;2.40;;
43114;SDS011;28727;50.068;14.452;2023-06-04T07:18:02;20.33;;;2.63;;
43114;SDS011;28727;50.068;14.452;2023-06-04T07:20:34;4.15;;;2.40;;
43114;SDS011;28727;50.068;14.452;2023-06-04T07:23:06;4.28;;;2.00;;
43114;SDS011;28727;50.068;14.452;2023-06-04T07:25:38;7.18;;;2.08;;
43114;SDS011;28727;50.068;14.452;2023-06-04T07:28:10;2.80;;;1.85;;
43114;SDS011;28727;50.068;14.452;2023-06-04T07:30:44;6.85;;;2.22;;
43114;SDS011;28727;50.068;14.452;2023-06-04T07:35:48;4.95;;;2.03;;
43114;SDS011;28727;50.068;14.452;2023-06-04T07:38:21;7.45;;;1.80;;
43114;SDS011;28727;50.068;14.452;2023-06-04T07:40:53;6.68;;;2.00;;
43114;SDS011;28727;50.068;14.452;2023-06-04T07:43:25;21.08;;;2.72;;
43114;SDS011;28727;50.068;14.452;2023-06-04T07:45:56;4.05;;;2.00;;
43114;SDS011;28727;50.068;14.452;2023-06-04T07:48:28;5.38;;;1.70;;
43114;SDS011;28727;50.068;14.452;2023-06-04T07:51:03;3.83;;;1.90;;
43114;SDS011;28727;50.068;14.452;2023-06-04T07:53:36;5.55;;;2.03;;
43114;SDS011;28727;50.068;14.452;2023-06-04T07:56:09;4.72;;;1.88;;
43114;SDS011;28727;50.068;14.452;2023-06-04T07:58:40;13.40;;;2.28;;
43114;SDS011;28727;50.068;14.452;2023-06-04T08:01:12;6.43;;;2.25;;
43114;SDS011;28727;50.068;14.452;2023-06-04T08:03:44;6.97;;;2.00;;
43114;SDS011;28727;50.068;14.452;2023-06-04T08:06:16;4.60;;;1.88;;
43114;SDS011;28727;50.068;14.452;2023-06-04T08:08:48;3.88;;;1.80;;
43114;SDS011;28727;50.068;14.452;2023-06-04T08:11:21;3.90;;;2.03;;
43114;SDS011;28727;50.068;14.452;2023-06-04T08:13:54;6.18;;;1.90;;
43114;SDS011;28727;50.068;14.452;2023-06-04T08:16:26;20.48;;;2.53;;
43114;SDS011;28727;50.068;14.452;2023-06-04T08:18:57;5.43;;;1.60;;
43114;SDS011;28727;50.068;14.452;2023-06-04T08:21:29;6.20;;;2.10;;
43114;SDS011;28727;50.068;14.452;2023-06-04T08:24:01;4.55;;;1.90;;
43114;SDS011;28727;50.068;14.452;2023-06-04T08:26:34;5.60;;;2.00;;
43114;SDS011;28727;50.068;14.452;2023-06-04T08:29:06;7.47;;;2.30;;
43114;SDS011;28727;50.068;14.452;2023-06-04T08:31:39;5.25;;;1.98;;
43114;SDS011;28727;50.068;14.452;2023-06-04T08:34:11;2.90;;;1.90;;
43114;SDS011;28727;50.068;14.452;2023-06-04T08:36:43;5.10;;;1.80;;
43114;SDS011;28727;50.068;14.452;2023-06-04T08:39:14;10.85;;;1.88;;
43114;SDS011;28727;50.068;14.452;2023-06-04T08:41:50;3.70;;;1.75;;
43114;SDS011;28727;50.068;14.452;2023-06-04T08:44:25;7.95;;;2.30;;
43114;SDS011;28727;50.068;14.452;2023-06-04T08:47:04;5.15;;;2.70;;
43114;SDS011;28727;50.068;14.452;2023-06-04T08:49:40;5.20;;;2.00;;
43114;SDS011;28727;50.068;14.452;2023-06-04T08:52:12;3.60;;;1.60;;
43114;SDS011;28727;50.068;14.452;2023-06-04T08:54:44;6.72;;;1.98;;
43114;SDS011;28727;50.068;14.452;2023-06-04T08:57:17;3.58;;;2.25;;
43114;SDS011;28727;50.068;14.452;2023-06-04T08:59:50;4.45;;;1.60;;
43114;SDS011;28727;50.068;14.452;2023-06-04T09:02:22;5.15;;;1.63;;
43114;SDS011;28727;50.068;14.452;2023-06-04T09:04:54;4.70;;;2.17;;
43114;SDS011;28727;50.068;14.452;2023-06-04T09:07:27;3.97;;;1.90;;
43114;SDS011;28727;50.068;14.452;2023-06-04T09:09:59;7.05;;;1.80;;
43114;SDS011;28727;50.068;14.452;2023-06-04T09:12:45;4.43;;;1.60;;
43114;SDS011;28727;50.068;14.452;2023-06-04T09:15:19;4.28;;;2.10;;
43114;SDS011;28727;50.068;14.452;2023-06-04T09:17:50;5.07;;;1.60;;
43114;SDS011;28727;50.068;14.452;2023-06-04T09:20:26;3.58;;;1.70;;
43114;SDS011;28727;50.068;14.452;2023-06-04T09:25:31;3.60;;;1.48;;
43114;SDS011;28727;50.068;14.452;2023-06-04T09:28:06;4.20;;;1.50;;
43114;SDS011;28727;50.068;14.452;2023-06-04T09:30:38;7.55;;;1.52;;
43114;SDS011;28727;50.068;14.452;2023-06-04T09:33:10;3.13;;;2.05;;
43114;SDS011;28727;50.068;14.452;2023-06-04T09:35:52;5.10;;;1.67;;
43114;SDS011;28727;50.068;14.452;2023-06-04T09:38:35;3.20;;;1.60;;
43114;SDS011;28727;50.068;14.452;2023-06-04T09:41:14;5.47;;;2.30;;
43114;SDS011;28727;50.068;14.452;2023-06-04T09:43:47;4.75;;;1.85;;
43114;SDS011;28727;50.068;14.452;2023-06-04T09:46:20;4.32;;;1.80;;
43114;SDS011;28727;50.068;14.452;2023-06-04T09:48:58;7.63;;;1.50;;
43114;SDS011;28727;50.068;14.452;2023-06-04T09:51:35;5.32;;;1.60;;
43114;SDS011;28727;50.068;14.452;2023-06-04T09:54:17;3.55;;;1.60;;
43114;SDS011;28727;50.068;14.452;2023-06-04T09:56:50;4.32;;;1.67;;
43114;SDS011;28727;50.068;14.452;2023-06-04T09:59:21;3.10;;;1.80;;
43114;SDS011;28727;50.068;14.452;2023-06-04T10:01:53;4.13;;;1.40;;
43114;SDS011;28727;50.068;14.452;2023-06-04T10:04:26;3.65;;;1.38;;
43114;SDS011;28727;50.068;14.452;2023-06-04T10:06:59;3.08;;;1.60;;
43114;SDS011;28727;50.068;14.452;2023-06-04T10:09:32;2.22;;;1.33;;
43114;SDS011;28727;50.068;14.452;2023-06-04T10:12:04;3.05;;;1.38;;
43114;SDS011;28727;50.068;14.452;2023-06-04T10:14:41;3.47;;;1.17;;
43114;SDS011;28727;50.068;14.452;2023-06-04T10:17:20;4.40;;;1.20;;
43114;SDS011;28727;50.068;14.452;2023-06-04T10:19:54;6.70;;;1.80;;
43114;SDS011;28727;50.068;14.452;2023-06-04T10:22:29;2.67;;;1.60;;
43114;SDS011;28727;50.068;14.452;2023-06-04T10:25:05;3.88;;;1.73;;
43114;SDS011;28727;50.068;14.452;2023-06-04T10:27:38;4.07;;;1.60;;
43114;SDS011;28727;50.068;14.452;2023-06-04T10:30:11;5.30;;;1.63;;
43114;SDS011;28727;50.068;14.452;2023-06-04T10:32:43;3.55;;;1.50;;
43114;SDS011;28727;50.068;14.452;2023-06-04T10:35:16;2.85;;;1.52;;
43114;SDS011;28727;50.068;14.452;2023-06-04T10:37:48;4.57;;;2.75;;
43114;SDS011;28727;50.068;14.452;2023-06-04T10:40:30;4.05;;;1.40;;
43114;SDS011;28727;50.068;14.452;2023-06-04T10:45:42;2.40;;;1.50;;
43114;SDS011;28727;50.068;14.452;2023-06-04T10:48:15;5.15;;;1.60;;
43114;SDS011;28727;50.068;14.452;2023-06-04T10:50:51;4.85;;;1.40;;
43114;SDS011;28727;50.068;14.452;2023-06-04T10:53:23;4.07;;;1.45;;
43114;SDS011;28727;50.068;14.452;2023-06-04T10:55:55;3.67;;;1.75;;
43114;SDS011;28727;50.068;14.452;2023-06-04T10:58:31;5.18;;;1.70;;
43114;SDS011;28727;50.068;14.452;2023-06-04T11:01:03;3.22;;;1.75;;
43114;SDS011;28727;50.068;14.452;2023-06-04T11:03:36;3.25;;;1.60;;
43114;SDS011;28727;50.068;14.452;2023-06-04T11:06:15;6.63;;;1.80;;
43114;SDS011;28727;50.068;14.452;2023-06-04T11:09:00;4.57;;;2.25;;
43114;SDS011;28727;50.068;14.452;2023-06-04T11:11:37;6.05;;;1.45;;
43114;SDS011;28727;50.068;14.452;2023-06-04T11:14:09;2.45;;;1.30;;
43114;SDS011;28727;50.068;14.452;2023-06-04T11:16:44;7.85;;;1.88;;
43114;SDS011;28727;50.068;14.452;2023-06-04T11:19:16;4.35;;;1.45;;
43114;SDS011;28727;50.068;14.452;2023-06-04T11:21:48;10.32;;;1.88;;
43114;SDS011;28727;50.068;14.452;2023-06-04T11:24:20;8.10;;;2.08;;
43114;SDS011;28727;50.068;14.452;2023-06-04T11:26:56;5.10;;;1.83;;
43114;SDS011;28727;50.068;14.452;2023-06-04T11:29:51;4.28;;;1.92;;
43114;SDS011;28727;50.068;14.452;2023-06-04T11:32:23;2.33;;;1.48;;
43114;SDS011;28727;50.068;14.452;2023-06-04T11:35:03;3.22;;;1.60;;
43114;SDS011;28727;50.068;14.452;2023-06-04T11:37:37;3.13;;;1.70;;
43114;SDS011;28727;50.068;14.452;2023-06-04T11:40:16;5.88;;;1.70;;
43114;SDS011;28727;50.068;14.452;2023-06-04T11:42:51;3.65;;;1.70;;
43114;SDS011;28727;50.068;14.452;2023-06-04T11:45:23;6.05;;;1.50;;
43114;SDS011;28727;50.068;14.452;2023-06-04T11:47:57;2.97;;;1.63;;
43114;SDS011;28727;50.068;14.452;2023-06-04T11:50:29;3.08;;;1.48;;
43114;SDS011;28727;50.068;14.452;2023-06-04T11:53:02;2.33;;;1.50;;
43114;SDS011;28727;50.068;14.452;2023-06-04T11:55:34;6.32;;;1.65;;
43114;SDS011;28727;50.068;14.452;2023-06-04T11:58:10;2.70;;;1.45;;
43114;SDS011;28727;50.068;14.452;2023-06-04T12:00:43;4.57;;;1.85;;
43114;SDS011;28727;50.068;14.452;2023-06-04T12:03:15;6.07;;;1.58;;
43114;SDS011;28727;50.068;14.452;2023-06-04T12:05:46;5.85;;;1.67;;
43114;SDS011;28727;50.068;14.452;2023-06-04T12:08:18;3.20;;;1.70;;
43114;SDS011;28727;50.068;14.452;2023-06-04T12:10:51;2.63;;;1.52;;
43114;SDS011;28727;50.068;14.452;2023-06-04T12:13:23;14.85;;;1.88;;
43114;SDS011;28727;50.068;14.452;2023-06-04T12:15:55;7.70;;;1.60;;
43114;SDS011;28727;50.068;14.452;2023-06-04T12:18:27;3.90;;;1.67;;
43114;SDS011;28727;50.068;14.452;2023-06-04T12:20:58;5.05;;;1.58;;
43114;SDS011;28727;50.068;14.452;2023-06-04T12:23:30;4.60;;;1.92;;
43114;SDS011;28727;50.068;14.452;2023-06-04T12:26:02;3.45;;;1.50;;
43114;SDS011;28727;50.068;14.452;2023-06-04T12:28:35;2.92;;;1.38;;
43114;SDS011;28727;50.068;14.452;2023-06-04T12:31:15;5.10;;;1.50;;
43114;SDS011;28727;50.068;14.452;2023-06-04T12:33:49;4.30;;;1.70;;
43114;SDS011;28727;50.068;14.452;2023-06-04T12:36:21;2.75;;;1.60;;
43114;SDS011;28727;50.068;14.452;2023-06-04T12:38:53;2.95;;;1.80;;
43114;SDS011;28727;50.068;14.452;2023-06-04T12:41:26;3.65;;;1.40;;
43114;SDS011;28727;50.068;14.452;2023-06-04T12:44:02;4.05;;;1.58;;
43114;SDS011;28727;50.068;14.452;2023-06-04T12:46:34;3.72;;;1.50;;
43114;SDS011;28727;50.068;14.452;2023-06-04T12:49:06;5.28;;;1.63;;
43114;SDS011;28727;50.068;14.452;2023-06-04T12:51:38;4.30;;;1.50;;
43114;SDS011;28727;50.068;14.452;2023-06-04T12:54:13;2.72;;;1.40;;
43114;SDS011;28727;50.068;14.452;2023-06-04T12:56:44;3.63;;;1.88;;
43114;SDS011;28727;50.068;14.452;2023-06-04T12:59:22;3.30;;;1.50;;
43114;SDS011;28727;50.068;14.452;2023-06-04T13:01:58;4.60;;;2.42;;
43114;SDS011;28727;50.068;14.452;2023-06-04T13:04:30;2.53;;;1.20;;
43114;SDS011;28727;50.068;14.452;2023-06-04T13:07:02;6.18;;;2.75;;
43114;SDS011;28727;50.068;14.452;2023-06-04T13:09:34;3.13;;;1.95;;
43114;SDS011;28727;50.068;14.452;2023-06-04T13:12:11;3.05;;;1.65;;
43114;SDS011;28727;50.068;14.452;2023-06-04T13:14:44;3.65;;;1.35;;
43114;SDS011;28727;50.068;14.452;2023-06-04T13:17:16;3.45;;;1.60;;
43114;SDS011;28727;50.068;14.452;2023-06-04T13:19:53;3.03;;;1.50;;
43114;SDS011;28727;50.068;14.452;2023-06-04T13:22:25;3.88;;;1.40;;
43114;SDS011;28727;50.068;14.452;2023-06-04T13:24:57;3.58;;;1.70;;
43114;SDS011;28727;50.068;14.452;2023-06-04T13:27:28;5.68;;;1.80;;
43114;SDS011;28727;50.068;14.452;2023-06-04T13:30:00;2.45;;;1.60;;
43114;SDS011;28727;50.068;14.452;2023-06-04T13:32:32;2.55;;;1.30;;
43114;SDS011;28727;50.068;14.452;2023-06-04T13:35:04;2.08;;;1.33;;
43114;SDS011;28727;50.068;14.452;2023-06-04T13:37:37;2.47;;;1.50;;
43114;SDS011;28727;50.068;14.452;2023-06-04T13:40:09;2.88;;;1.20;;
43114;SDS011;28727;50.068;14.452;2023-06-04T13:42:41;3.10;;;1.70;;
43114;SDS011;28727;50.068;14.452;2023-06-04T13:45:14;4.97;;;1.80;;
43114;SDS011;28727;50.068;14.452;2023-06-04T13:47:48;3.75;;;1.67;;
43114;SDS011;28727;50.068;14.452;2023-06-04T13:50:20;2.88;;;1.30;;
43114;SDS011;28727;50.068;14.452;2023-06-04T13:52:52;6.15;;;1.67;;
43114;SDS011;28727;50.068;14.452;2023-06-04T13:55:27;3.88;;;1.33;;
43114;SDS011;28727;50.068;14.452;2023-06-04T13:57:59;4.10;;;1.30;;
43114;SDS011;28727;50.068;14.452;2023-06-04T14:00:31;2.85;;;1.30;;
43114;SDS011;28727;50.068;14.452;2023-06-04T14:03:04;3.03;;;1.77;;
43114;SDS011;28727;50.068;14.452;2023-06-04T14:05:36;3.03;;;1.40;;
43114;SDS011;28727;50.068;14.452;2023-06-04T14:08:11;3.83;;;1.48;;
43114;SDS011;28727;50.068;14.452;2023-06-04T14:10:43;2.90;;;1.50;;
43114;SDS011;28727;50.068;14.452;2023-06-04T14:13:16;1.95;;;1.27;;
43114;SDS011;28727;50.068;14.452;2023-06-04T14:15:48;3.53;;;1.50;;
43114;SDS011;28727;50.068;14.452;2023-06-04T14:18:19;2.78;;;1.20;;
43114;SDS011;28727;50.068;14.452;2023-06-04T14:20:51;4.78;;;1.60;;
43114;SDS011;28727;50.068;14.452;2023-06-04T14:23:23;3.40;;;1.65;;
43114;SDS011;28727;50.068;14.452;2023-06-04T14:25:55;2.30;;;1.20;;
43114;SDS011;28727;50.068;14.452;2023-06-04T14:28:27;2.75;;;1.45;;
43114;SDS011;28727;50.068;14.452;2023-06-04T14:30:59;2.00;;;1.10;;
43114;SDS011;28727;50.068;14.452;2023-06-04T14:33:31;1.77;;;1.20;;
43114;SDS011;28727;50.068;14.452;2023-06-04T14:36:03;4.13;;;1.40;;
43114;SDS011;28727;50.068;14.452;2023-06-04T14:38:35;2.38;;;1.40;;
43114;SDS011;28727;50.068;14.452;2023-06-04T14:41:08;2.65;;;1.73;;
43114;SDS011;28727;50.068;14.452;2023-06-04T14:43:40;2.38;;;1.23;;
43114;SDS011;28727;50.068;14.452;2023-06-04T14:46:12;2.22;;;1.25;;
43114;SDS011;28727;50.068;14.452;2023-06-04T14:48:44;1.63;;;1.20;;
43114;SDS011;28727;50.068;14.452;2023-06-04T14:51:16;2.42;;;1.13;;
43114;SDS011;28727;50.068;14.452;2023-06-04T14:53:48;2.88;;;1.20;;
43114;SDS011;28727;50.068;14.452;2023-06-04T14:56:20;3.85;;;1.42;;
43114;SDS011;28727;50.068;14.452;2023-06-04T14:58:51;3.45;;;1.25;;
43114;SDS011;28727;50.068;14.452;2023-06-04T15:01:23;3.38;;;1.42;;
43114;SDS011;28727;50.068;14.452;2023-06-04T15:03:55;5.15;;;1.48;;
43114;SDS011;28727;50.068;14.452;2023-06-04T15:06:27;3.17;;;1.35;;
43114;SDS011;28727;50.068;14.452;2023-06-04T15:08:59;2.67;;;1.40;;
43114;SDS011;28727;50.068;14.452;2023-06-04T15:11:31;2.58;;;1.42;;
43114;SDS011;28727;50.068;14.452;2023-06-04T15:14:03;2.50;;;1.30;;
43114;SDS011;28727;50.068;14.452;2023-06-04T15:16:34;3.03;;;1.42;;
43114;SDS011;28727;50.068;14.452;2023-06-04T15:19:06;2.95;;;1.42;;
43114;SDS011;28727;50.068;14.452;2023-06-04T15:21:40;2.50;;;1.30;;
43114;SDS011;28727;50.068;14.452;2023-06-04T15:24:11;2.47;;;1.35;;
43114;SDS011;28727;50.068;14.452;2023-06-04T15:26:44;2.13;;;1.45;;
43114;SDS011;28727;50.068;14.452;2023-06-04T15:29:17;3.67;;;1.60;;
43114;SDS011;28727;50.068;14.452;2023-06-04T15:31:48;4.05;;;1.50;;